Cic Oslo — 3ENT5 — position and weather

sailwx.info

Track history (hours):
 
Tides and Currents Weather Stations Pressure Air Temp Water Temp Dewpoint Dewpoint Depression Visibility Wind Speed Wind Dir Waves Ship Positions

Cic Oslo

Last reported at 2017-Oct-20 09:25 UTC. Time now 2017-Dec-13 13:05 UTC.
Position N 30°45' E 032°20'.
Warning: this ship's position is 54 days out of date.

Length 292 m; draft 15.1 m.

Type: Cargo ship. MMSI: 371655000.

Date/timePositionNaut miles runAvg speedWind from/ knotsBaromVisibWave heightAir tempDewpointWater temp
2017-Oct-20 09:25N 30°45' E 032°20'8 8.2
2017-Oct-20 08:29N 30°52' E 032°19'35 6.7
2017-Oct-20 03:13N 31°27' E 032°21'1 3.3
2017-Oct-20 02:54N 31°27' E 032°19'1 1.5
2017-Oct-20 02:22N 31°27' E 032°19'1 0.1
2017-Oct-19 15:50N 31°26' E 032°18'0 0.0
2017-Oct-19 15:29N 31°26' E 032°18'0 0.0
2017-Oct-19 14:59N 31°26' E 032°18'0 0.0
2017-Oct-19 14:29N 31°26' E 032°18'0 0.0
2017-Oct-19 13:59N 31°26' E 032°18'0 0.0
2017-Oct-19 13:26N 31°26' E 032°18'0 0.0
2017-Oct-19 12:59N 31°26' E 032°18'0 0.0
2017-Oct-19 12:29N 31°26' E 032°18'0 0.0
2017-Oct-19 11:59N 31°26' E 032°18'0 0.0
2017-Oct-19 11:23N 31°26' E 032°18'0 0.0
2017-Oct-19 10:59N 31°26' E 032°18'0 0.0
2017-Oct-19 10:29N 31°26' E 032°18'0 0.0
2017-Oct-19 07:45N 31°26' E 032°18'1 0.7
2017-Oct-19 06:24N 31°25' E 032°19'2 5.0
2017-Oct-19 06:00N 31°26' E 032°17'1511.3
2017-Oct-19 04:39N 31°38' E 032°05'211.8
2017-Oct-19 04:30N 31°39' E 032°04'811.7
2017-Oct-19 03:48N 31°45' E 031°57'2012.0
2017-Oct-19 02:11N 31°49' E 031°35'411.9
2017-Oct-19 01:53N 31°50' E 031°31'54911.4
2017-Oct-17 01:32N 34°41' E 021°06'111.6
2017-Oct-17 01:25N 34°41' E 021°04'511.6
2017-Oct-17 01:00N 34°43' E 020°59'611.6
2017-Oct-17 00:30N 34°45' E 020°52'911.6
2017-Oct-16 23:45N 34°48' E 020°42'311.5
2017-Oct-16 23:30N 34°49' E 020°39'611.5
2017-Oct-16 23:00N 34°50' E 020°32'4111.7
2017-Oct-16 19:29N 35°03' E 019°44'1311.6
2017-Oct-16 18:24N 35°07' E 019°30'19611.7
2017-Oct-16 01:42N 36°08' E 015°41'311.1
2017-Oct-16 01:25N 36°09' E 015°37'511.2
2017-Oct-16 00:56N 36°10' E 015°31'1011.6
2017-Oct-16 00:07N 36°14' E 015°20'511.8
2017-Oct-15 23:41N 36°16' E 015°14'312.0
2017-Oct-15 23:24N 36°17' E 015°10'512.3
2017-Oct-15 22:59N 36°18' E 015°04'612.3
2017-Oct-15 22:30N 36°19' E 014°57'612.5
2017-Oct-15 22:00N 36°21' E 014°50'612.5
2017-Oct-15 21:30N 36°24' E 014°42'612.7
2017-Oct-15 21:00N 36°25' E 014°35'612.8
2017-Oct-15 20:30N 36°27' E 014°27'612.8
2017-Oct-15 20:00N 36°30' E 014°20'612.9
2017-Oct-15 19:30N 36°32' E 014°12'612.7
2017-Oct-15 19:00N 36°33' E 014°05'612.6
2017-Oct-15 18:30N 36°35' E 013°57'612.6
2017-Oct-15 18:00N 36°37' E 013°50'612.6
2017-Oct-15 17:30N 36°39' E 013°42'612.6
2017-Oct-15 17:00N 36°41' E 013°35'612.6
2017-Oct-15 16:30N 36°43' E 013°27'612.4
2017-Oct-15 16:00N 36°45' E 013°20'612.3
2017-Oct-15 15:30N 36°47' E 013°13'612.1
2017-Oct-15 15:00N 36°49' E 013°06'1212.1
2017-Oct-15 14:00N 36°54' E 012°51'612.3
2017-Oct-15 13:30N 36°56' E 012°44'612.4
2017-Oct-15 13:00N 36°58' E 012°37'612.0
2017-Oct-15 12:30N 36°59' E 012°30'612.0
2017-Oct-15 12:00N 37°01' E 012°23'612.0
2017-Oct-15 11:31N 37°03' E 012°15'1012.0
2017-Oct-15 10:39N 37°06' E 012°03'212.2
2017-Oct-15 10:30N 37°07' E 012°01'712.1
2017-Oct-15 09:54N 37°09' E 011°53'512.0
2017-Oct-15 09:30N 37°11' E 011°47'612.0
2017-Oct-15 09:00N 37°13' E 011°40'611.8
2017-Oct-15 08:30N 37°15' E 011°33'30911.6
2017-Oct-14 05:44N 37°12' E 005°04'1511.5
2017-Oct-14 04:27N 37°09' E 004°46'711.4
2017-Oct-14 03:52N 37°09' E 004°37'411.3
2017-Oct-14 03:30N 37°08' E 004°32'611.8
2017-Oct-14 03:00N 37°07' E 004°25'611.8
2017-Oct-14 02:29N 37°06' E 004°17'911.9
2017-Oct-14 01:42N 37°05' E 004°06'211.9
2017-Oct-14 01:30N 37°05' E 004°03'711.9
2017-Oct-14 00:57N 37°04' E 003°55'511.8
2017-Oct-14 00:30N 37°03' E 003°48'612.0
2017-Oct-14 00:00N 37°02' E 003°41'612.1
2017-Oct-13 23:30N 37°01' E 003°33'612.0
2017-Oct-13 23:00N 37°00' E 003°26'612.0
2017-Oct-13 22:30N 36°60' E 003°18'612.2
2017-Oct-13 22:00N 36°59' E 003°11'612.2
2017-Oct-13 21:30N 36°58' E 003°03'612.0
2017-Oct-13 21:00N 36°58' E 002°56'612.0
2017-Oct-13 20:30N 36°58' E 002°48'612.0
2017-Oct-13 20:00N 36°57' E 002°41'510.9
2017-Oct-13 19:30N 36°56' E 002°34'611.5
2017-Oct-13 19:00N 36°54' E 002°28'612.1
2017-Oct-13 18:30N 36°53' E 002°20'612.1
2017-Oct-13 18:00N 36°52' E 002°13'612.1
2017-Oct-13 17:30N 36°51' E 002°05'612.4
2017-Oct-13 17:00N 36°50' E 001°58'612.4
2017-Oct-13 16:30N 36°49' E 001°50'612.3
2017-Oct-13 16:00N 36°48' E 001°42'712.4
2017-Oct-13 15:28N 36°48' E 001°34'612.3
2017-Oct-13 15:00N 36°47' E 001°27'612.0
2017-Oct-13 14:30N 36°46' E 001°20'811.7
2017-Oct-13 13:51N 36°45' E 001°10'511.6
2017-Oct-13 13:27N 36°44' E 001°04'511.4
2017-Oct-13 13:00N 36°43' E 000°58'611.7
2017-Oct-13 12:28N 36°43' E 000°50'612.3
2017-Oct-13 11:58N 36°42' E 000°43'612.4
2017-Oct-13 11:30N 36°41' E 000°36'612.5
2017-Oct-13 10:59N 36°40' E 000°28'612.3
2017-Oct-13 10:28N 36°39' E 000°20'612.2
2017-Oct-13 10:00N 36°38' E 000°13'612.1
2017-Oct-13 09:30N 36°37' E 000°05'612.2
2017-Oct-13 09:00N 36°37' W 000°02'712.5
2017-Oct-13 08:26N 36°36' W 000°11'712.5
2017-Oct-13 07:52N 36°35' W 000°20'812.3
2017-Oct-13 07:12N 36°33' W 000°30'312.1
2017-Oct-13 06:59N 36°33' W 000°33'612.3
2017-Oct-13 06:30N 36°32' W 000°40'612.3
2017-Oct-13 06:00N 36°32' W 000°48'712.2
2017-Oct-13 05:26N 36°31' W 000°57'1612.3
2017-Oct-13 04:07N 36°28' W 001°16'112.4
2017-Oct-13 04:00N 36°28' W 001°18'712.6
2017-Oct-13 03:28N 36°27' W 001°26'612.7
2017-Oct-13 03:00N 36°26' W 001°34'713.1
2017-Oct-13 02:30N 36°25' W 001°42'712.8
2017-Oct-13 01:58N 36°24' W 001°50'612.6
2017-Oct-13 01:29N 36°23' W 001°58'712.7
2017-Oct-13 00:58N 36°23' W 002°06'712.7
2017-Oct-13 00:26N 36°22' W 002°14'1012.7
2017-Oct-12 23:38N 36°21' W 002°27'412.6
2017-Oct-12 23:17N 36°21' W 002°32'12412.5
2017-Oct-12 13:25N 36°07' W 005°04'512.2
2017-Oct-12 13:00N 36°06' W 005°11'612.1
2017-Oct-12 12:31N 36°06' W 005°18'3 6.9
2017-Oct-12 12:00N 36°06' W 005°22'0 0.6
2017-Oct-12 11:30N 36°07' W 005°22'0 0.0
2017-Oct-12 10:57N 36°07' W 005°22'0 0.1
2017-Oct-12 10:30N 36°07' W 005°22'0 0.0
2017-Oct-12 10:00N 36°07' W 005°22'0 0.0
2017-Oct-12 09:30N 36°07' W 005°22'0 0.0
2017-Oct-12 09:00N 36°07' W 005°22'0 0.1
2017-Oct-12 08:30N 36°07' W 005°22'0 0.1
2017-Oct-12 07:36N 36°07' W 005°22'0 0.1
2017-Oct-12 07:21N 36°07' W 005°22'0 0.3
2017-Oct-12 06:39N 36°07' W 005°22'0 0.2
2017-Oct-12 06:24N 36°07' W 005°22'0 0.2
2017-Oct-12 05:42N 36°07' W 005°22'0 0.1
2017-Oct-12 05:30N 36°07' W 005°22'0 0.2
2017-Oct-12 05:00N 36°07' W 005°22'0 0.1
2017-Oct-12 04:30N 36°07' W 005°22'0 0.5
2017-Oct-12 04:00N 36°07' W 005°22'0 0.1
2017-Oct-12 03:30N 36°07' W 005°22'0 0.4
2017-Oct-12 03:00N 36°07' W 005°22'0 0.4
2017-Oct-12 02:30N 36°07' W 005°22'0 0.2
2017-Oct-12 02:00N 36°07' W 005°22'0 0.1
2017-Oct-12 01:30N 36°07' W 005°22'0 0.0
2017-Oct-12 01:00N 36°07' W 005°22'0 0.1
2017-Oct-12 00:30N 36°07' W 005°22'0 0.1
2017-Oct-12 00:00N 36°07' W 005°22'0 0.0
2017-Oct-11 23:30N 36°07' W 005°22'0 0.2
2017-Oct-11 23:00N 36°07' W 005°22'2 4.7
2017-Oct-11 22:30N 36°05' W 005°20'2 3.1
2017-Oct-11 22:00N 36°03' W 005°20'3 6.3
2017-Oct-11 21:30N 35°60' W 005°21'3 6.2
2017-Oct-11 21:00N 35°59' W 005°24'510.8
2017-Oct-11 20:30N 35°57' W 005°30'611.1
2017-Oct-11 20:00N 35°55' W 005°37'611.2
2017-Oct-11 19:28N 35°55' W 005°44'611.1
2017-Oct-11 18:57N 35°54' W 005°51'2310.7
2017-Oct-11 16:49N 35°54' W 006°19'18511.0
2017-Oct-11 00:00N 36°01' W 010°08'611.1
2017-Oct-10 23:30N 36°01' W 010°15'611.2
2017-Oct-10 23:01N 36°01' W 010°22'611.3
2017-Oct-10 22:30N 36°01' W 010°29'611.4
2017-Oct-10 22:01N 36°02' W 010°36'611.4
2017-Oct-10 21:31N 36°02' W 010°43'611.3
2017-Oct-10 21:00N 36°02' W 010°50'611.4
2017-Oct-10 20:30N 36°02' W 010°57'611.7
2017-Oct-10 20:01N 36°02' W 011°04'612.1
2017-Oct-10 19:31N 36°02' W 011°11'611.8
2017-Oct-10 19:00N 36°03' W 011°19'611.5
2017-Oct-10 18:31N 36°03' W 011°26'611.5
2017-Oct-10 18:01N 36°03' W 011°33'611.6
2017-Oct-10 17:31N 36°03' W 011°40'611.7
2017-Oct-10 17:01N 36°03' W 011°47'612.0
2017-Oct-10 16:31N 36°04' W 011°55'611.8
2017-Oct-10 16:01N 36°04' W 012°02'611.7
2017-Oct-10 15:31N 36°04' W 012°09'611.8
2017-Oct-10 15:01N 36°04' W 012°17'1111.4
2017-Oct-10 14:01N 36°05' W 012°31'611.3
2017-Oct-10 13:31N 36°05' W 012°38'611.5
2017-Oct-10 13:01N 36°05' W 012°45'611.7
2017-Oct-10 12:31N 36°05' W 012°52'611.7
2017-Oct-10 12:01N 36°06' W 012°59'611.5
2017-Oct-10 11:30N 36°06' W 013°06'611.3
2017-Oct-10 11:01N 36°06' W 013°13'611.2
2017-Oct-10 10:30N 36°06' W 013°20'611.2
2017-Oct-10 10:01N 36°06' W 013°27'611.1
2017-Oct-10 09:31N 36°06' W 013°34'  
Track history (hours):
 
Tides and Currents Weather Stations Pressure Air Temp Water Temp Dewpoint Dewpoint Depression Visibility Wind Speed Wind Dir Waves Ship Positions

Cic Oslo

Last reported at 2017-Oct-20 09:25 UTC. Time now 2017-Dec-13 13:05 UTC.
Position N 30°45' E 032°20'.
Warning: this ship's position is 54 days out of date.

Length 292 m; draft 15.1 m.

Type: Cargo ship. MMSI: 371655000.

Date/timePositionNaut miles runAvg speedWind from/ knotsBaromVisibWave heightAir tempDewpointWater temp
2017-Oct-20 09:25N 30°45' E 032°20'8 8.2
2017-Oct-20 08:29N 30°52' E 032°19'35 6.7
2017-Oct-20 03:13N 31°27' E 032°21'1 3.3
2017-Oct-20 02:54N 31°27' E 032°19'1 1.5
2017-Oct-20 02:22N 31°27' E 032°19'1 0.1
2017-Oct-19 15:50N 31°26' E 032°18'0 0.0
2017-Oct-19 15:29N 31°26' E 032°18'0 0.0
2017-Oct-19 14:59N 31°26' E 032°18'0 0.0
2017-Oct-19 14:29N 31°26' E 032°18'0 0.0
2017-Oct-19 13:59N 31°26' E 032°18'0 0.0
2017-Oct-19 13:26N 31°26' E 032°18'0 0.0
2017-Oct-19 12:59N 31°26' E 032°18'0 0.0
2017-Oct-19 12:29N 31°26' E 032°18'0 0.0
2017-Oct-19 11:59N 31°26' E 032°18'0 0.0
2017-Oct-19 11:23N 31°26' E 032°18'0 0.0
2017-Oct-19 10:59N 31°26' E 032°18'0 0.0
2017-Oct-19 10:29N 31°26' E 032°18'0 0.0
2017-Oct-19 07:45N 31°26' E 032°18'1 0.7
2017-Oct-19 06:24N 31°25' E 032°19'2 5.0
2017-Oct-19 06:00N 31°26' E 032°17'1511.3
2017-Oct-19 04:39N 31°38' E 032°05'211.8
2017-Oct-19 04:30N 31°39' E 032°04'811.7
2017-Oct-19 03:48N 31°45' E 031°57'2012.0
2017-Oct-19 02:11N 31°49' E 031°35'411.9
2017-Oct-19 01:53N 31°50' E 031°31'54911.4
2017-Oct-17 01:32N 34°41' E 021°06'111.6
2017-Oct-17 01:25N 34°41' E 021°04'511.6
2017-Oct-17 01:00N 34°43' E 020°59'611.6
2017-Oct-17 00:30N 34°45' E 020°52'911.6
2017-Oct-16 23:45N 34°48' E 020°42'311.5
2017-Oct-16 23:30N 34°49' E 020°39'611.5
2017-Oct-16 23:00N 34°50' E 020°32'4111.7
2017-Oct-16 19:29N 35°03' E 019°44'1311.6
2017-Oct-16 18:24N 35°07' E 019°30'19611.7
2017-Oct-16 01:42N 36°08' E 015°41'311.1
2017-Oct-16 01:25N 36°09' E 015°37'511.2
2017-Oct-16 00:56N 36°10' E 015°31'1011.6
2017-Oct-16 00:07N 36°14' E 015°20'511.8
2017-Oct-15 23:41N 36°16' E 015°14'312.0
2017-Oct-15 23:24N 36°17' E 015°10'512.3
2017-Oct-15 22:59N 36°18' E 015°04'612.3
2017-Oct-15 22:30N 36°19' E 014°57'612.5
2017-Oct-15 22:00N 36°21' E 014°50'612.5
2017-Oct-15 21:30N 36°24' E 014°42'612.7
2017-Oct-15 21:00N 36°25' E 014°35'612.8
2017-Oct-15 20:30N 36°27' E 014°27'612.8
2017-Oct-15 20:00N 36°30' E 014°20'612.9
2017-Oct-15 19:30N 36°32' E 014°12'612.7
2017-Oct-15 19:00N 36°33' E 014°05'612.6
2017-Oct-15 18:30N 36°35' E 013°57'612.6
2017-Oct-15 18:00N 36°37' E 013°50'612.6
2017-Oct-15 17:30N 36°39' E 013°42'612.6
2017-Oct-15 17:00N 36°41' E 013°35'612.6
2017-Oct-15 16:30N 36°43' E 013°27'612.4
2017-Oct-15 16:00N 36°45' E 013°20'612.3
2017-Oct-15 15:30N 36°47' E 013°13'612.1
2017-Oct-15 15:00N 36°49' E 013°06'1212.1
2017-Oct-15 14:00N 36°54' E 012°51'612.3
2017-Oct-15 13:30N 36°56' E 012°44'612.4
2017-Oct-15 13:00N 36°58' E 012°37'612.0
2017-Oct-15 12:30N 36°59' E 012°30'612.0
2017-Oct-15 12:00N 37°01' E 012°23'612.0
2017-Oct-15 11:31N 37°03' E 012°15'1012.0
2017-Oct-15 10:39N 37°06' E 012°03'212.2
2017-Oct-15 10:30N 37°07' E 012°01'712.1
2017-Oct-15 09:54N 37°09' E 011°53'512.0
2017-Oct-15 09:30N 37°11' E 011°47'612.0
2017-Oct-15 09:00N 37°13' E 011°40'611.8
2017-Oct-15 08:30N 37°15' E 011°33'30911.6
2017-Oct-14 05:44N 37°12' E 005°04'1511.5
2017-Oct-14 04:27N 37°09' E 004°46'711.4
2017-Oct-14 03:52N 37°09' E 004°37'411.3
2017-Oct-14 03:30N 37°08' E 004°32'611.8
2017-Oct-14 03:00N 37°07' E 004°25'611.8
2017-Oct-14 02:29N 37°06' E 004°17'911.9
2017-Oct-14 01:42N 37°05' E 004°06'211.9
2017-Oct-14 01:30N 37°05' E 004°03'711.9
2017-Oct-14 00:57N 37°04' E 003°55'511.8
2017-Oct-14 00:30N 37°03' E 003°48'612.0
2017-Oct-14 00:00N 37°02' E 003°41'612.1
2017-Oct-13 23:30N 37°01' E 003°33'612.0
2017-Oct-13 23:00N 37°00' E 003°26'612.0
2017-Oct-13 22:30N 36°60' E 003°18'612.2
2017-Oct-13 22:00N 36°59' E 003°11'612.2
2017-Oct-13 21:30N 36°58' E 003°03'612.0
2017-Oct-13 21:00N 36°58' E 002°56'612.0
2017-Oct-13 20:30N 36°58' E 002°48'612.0
2017-Oct-13 20:00N 36°57' E 002°41'510.9
2017-Oct-13 19:30N 36°56' E 002°34'611.5
2017-Oct-13 19:00N 36°54' E 002°28'612.1
2017-Oct-13 18:30N 36°53' E 002°20'612.1
2017-Oct-13 18:00N 36°52' E 002°13'612.1
2017-Oct-13 17:30N 36°51' E 002°05'612.4
2017-Oct-13 17:00N 36°50' E 001°58'612.4
2017-Oct-13 16:30N 36°49' E 001°50'612.3
2017-Oct-13 16:00N 36°48' E 001°42'712.4
2017-Oct-13 15:28N 36°48' E 001°34'612.3
2017-Oct-13 15:00N 36°47' E 001°27'612.0
2017-Oct-13 14:30N 36°46' E 001°20'811.7
2017-Oct-13 13:51N 36°45' E 001°10'511.6
2017-Oct-13 13:27N 36°44' E 001°04'511.4
2017-Oct-13 13:00N 36°43' E 000°58'611.7
2017-Oct-13 12:28N 36°43' E 000°50'612.3
2017-Oct-13 11:58N 36°42' E 000°43'612.4
2017-Oct-13 11:30N 36°41' E 000°36'612.5
2017-Oct-13 10:59N 36°40' E 000°28'612.3
2017-Oct-13 10:28N 36°39' E 000°20'612.2
2017-Oct-13 10:00N 36°38' E 000°13'612.1
2017-Oct-13 09:30N 36°37' E 000°05'612.2
2017-Oct-13 09:00N 36°37' W 000°02'712.5
2017-Oct-13 08:26N 36°36' W 000°11'712.5
2017-Oct-13 07:52N 36°35' W 000°20'812.3
2017-Oct-13 07:12N 36°33' W 000°30'312.1
2017-Oct-13 06:59N 36°33' W 000°33'612.3
2017-Oct-13 06:30N 36°32' W 000°40'612.3
2017-Oct-13 06:00N 36°32' W 000°48'712.2
2017-Oct-13 05:26N 36°31' W 000°57'1612.3
2017-Oct-13 04:07N 36°28' W 001°16'112.4
2017-Oct-13 04:00N 36°28' W 001°18'712.6
2017-Oct-13 03:28N 36°27' W 001°26'612.7
2017-Oct-13 03:00N 36°26' W 001°34'713.1
2017-Oct-13 02:30N 36°25' W 001°42'712.8
2017-Oct-13 01:58N 36°24' W 001°50'612.6
2017-Oct-13 01:29N 36°23' W 001°58'712.7
2017-Oct-13 00:58N 36°23' W 002°06'712.7
2017-Oct-13 00:26N 36°22' W 002°14'1012.7
2017-Oct-12 23:38N 36°21' W 002°27'412.6
2017-Oct-12 23:17N 36°21' W 002°32'12412.5
2017-Oct-12 13:25N 36°07' W 005°04'512.2
2017-Oct-12 13:00N 36°06' W 005°11'612.1
2017-Oct-12 12:31N 36°06' W 005°18'3 6.9
2017-Oct-12 12:00N 36°06' W 005°22'0 0.6
2017-Oct-12 11:30N 36°07' W 005°22'0 0.0
2017-Oct-12 10:57N 36°07' W 005°22'0 0.1
2017-Oct-12 10:30N 36°07' W 005°22'0 0.0
2017-Oct-12 10:00N 36°07' W 005°22'0 0.0
2017-Oct-12 09:30N 36°07' W 005°22'0 0.0
2017-Oct-12 09:00N 36°07' W 005°22'0 0.1
2017-Oct-12 08:30N 36°07' W 005°22'0 0.1
2017-Oct-12 07:36N 36°07' W 005°22'0 0.1
2017-Oct-12 07:21N 36°07' W 005°22'0 0.3
2017-Oct-12 06:39N 36°07' W 005°22'0 0.2
2017-Oct-12 06:24N 36°07' W 005°22'0 0.2
2017-Oct-12 05:42N 36°07' W 005°22'0 0.1
2017-Oct-12 05:30N 36°07' W 005°22'0 0.2
2017-Oct-12 05:00N 36°07' W 005°22'0 0.1
2017-Oct-12 04:30N 36°07' W 005°22'0 0.5
2017-Oct-12 04:00N 36°07' W 005°22'0 0.1
2017-Oct-12 03:30N 36°07' W 005°22'0 0.4
2017-Oct-12 03:00N 36°07' W 005°22'0 0.4
2017-Oct-12 02:30N 36°07' W 005°22'0 0.2
2017-Oct-12 02:00N 36°07' W 005°22'0 0.1
2017-Oct-12 01:30N 36°07' W 005°22'0 0.0
2017-Oct-12 01:00N 36°07' W 005°22'0 0.1
2017-Oct-12 00:30N 36°07' W 005°22'0 0.1
2017-Oct-12 00:00N 36°07' W 005°22'0 0.0
2017-Oct-11 23:30N 36°07' W 005°22'0 0.2
2017-Oct-11 23:00N 36°07' W 005°22'2 4.7
2017-Oct-11 22:30N 36°05' W 005°20'2 3.1
2017-Oct-11 22:00N 36°03' W 005°20'3 6.3
2017-Oct-11 21:30N 35°60' W 005°21'3 6.2
2017-Oct-11 21:00N 35°59' W 005°24'510.8
2017-Oct-11 20:30N 35°57' W 005°30'611.1
2017-Oct-11 20:00N 35°55' W 005°37'611.2
2017-Oct-11 19:28N 35°55' W 005°44'611.1
2017-Oct-11 18:57N 35°54' W 005°51'2310.7
2017-Oct-11 16:49N 35°54' W 006°19'18511.0
2017-Oct-11 00:00N 36°01' W 010°08'611.1
2017-Oct-10 23:30N 36°01' W 010°15'611.2
2017-Oct-10 23:01N 36°01' W 010°22'611.3
2017-Oct-10 22:30N 36°01' W 010°29'611.4
2017-Oct-10 22:01N 36°02' W 010°36'611.4
2017-Oct-10 21:31N 36°02' W 010°43'611.3
2017-Oct-10 21:00N 36°02' W 010°50'611.4
2017-Oct-10 20:30N 36°02' W 010°57'611.7
2017-Oct-10 20:01N 36°02' W 011°04'612.1
2017-Oct-10 19:31N 36°02' W 011°11'611.8
2017-Oct-10 19:00N 36°03' W 011°19'611.5
2017-Oct-10 18:31N 36°03' W 011°26'611.5
2017-Oct-10 18:01N 36°03' W 011°33'611.6
2017-Oct-10 17:31N 36°03' W 011°40'611.7
2017-Oct-10 17:01N 36°03' W 011°47'612.0
2017-Oct-10 16:31N 36°04' W 011°55'611.8
2017-Oct-10 16:01N 36°04' W 012°02'611.7
2017-Oct-10 15:31N 36°04' W 012°09'611.8
2017-Oct-10 15:01N 36°04' W 012°17'1111.4
2017-Oct-10 14:01N 36°05' W 012°31'611.3
2017-Oct-10 13:31N 36°05' W 012°38'611.5
2017-Oct-10 13:01N 36°05' W 012°45'611.7
2017-Oct-10 12:31N 36°05' W 012°52'611.7
2017-Oct-10 12:01N 36°06' W 012°59'611.5
2017-Oct-10 11:30N 36°06' W 013°06'611.3
2017-Oct-10 11:01N 36°06' W 013°13'611.2
2017-Oct-10 10:30N 36°06' W 013°20'611.2
2017-Oct-10 10:01N 36°06' W 013°27'611.1
2017-Oct-10 09:31N 36°06' W 013°34'  

Dump ship's entire track history